createdAt,value
2022-08-03T00:01:28.040Z,3.67
2022-08-03T00:03:55.114Z,4.57
2022-08-03T00:06:22.031Z,4.28
2022-08-03T00:08:49.346Z,4.00
2022-08-03T00:11:16.658Z,3.60
2022-08-03T00:13:43.956Z,3.63
2022-08-03T00:16:11.663Z,3.63
2022-08-03T00:18:38.942Z,4.00
2022-08-03T00:21:06.132Z,3.85
2022-08-03T00:23:51.588Z,3.95
2022-08-03T00:26:20.614Z,4.40
2022-08-03T00:28:47.916Z,4.60
2022-08-03T00:31:15.049Z,5.05
2022-08-03T00:33:58.180Z,4.28
2022-08-03T00:36:28.477Z,4.10
2022-08-03T00:38:56.382Z,3.92
2022-08-03T00:41:23.534Z,3.80
2022-08-03T00:43:50.591Z,4.05
2022-08-03T00:46:21.343Z,4.15
2022-08-03T00:48:53.877Z,4.90
2022-08-03T00:51:21.788Z,3.88
2022-08-03T00:53:49.485Z,4.18
2022-08-03T00:56:17.449Z,4.35
2022-08-03T00:58:45.967Z,3.92
2022-08-03T01:01:13.159Z,4.25
2022-08-03T01:03:40.496Z,4.43
2022-08-03T01:06:20.156Z,4.57
2022-08-03T01:08:57.156Z,4.47
2022-08-03T01:11:29.684Z,4.75
2022-08-03T01:14:19.036Z,4.05
2022-08-03T01:17:12.239Z,4.22
2022-08-03T01:20:18.606Z,4.10
2022-08-03T01:22:52.404Z,3.85
2022-08-03T01:25:40.671Z,3.53
2022-08-03T01:28:33.656Z,3.60
2022-08-03T01:31:06.749Z,3.97
2022-08-03T01:33:47.048Z,3.20
2022-08-03T01:36:21.935Z,3.22
2022-08-03T01:38:55.303Z,2.95
2022-08-03T01:41:26.953Z,3.40
2022-08-03T01:44:28.275Z,3.67
2022-08-03T01:46:47.616Z,3.50
2022-08-03T01:49:18.194Z,3.65
2022-08-03T01:51:58.384Z,3.33
2022-08-03T01:54:36.293Z,4.18
2022-08-03T01:57:03.920Z,2.92
2022-08-03T01:59:34.595Z,3.63
2022-08-03T02:02:28.326Z,2.95
2022-08-03T02:04:52.768Z,3.53
2022-08-03T02:07:20.769Z,3.38
2022-08-03T02:09:51.609Z,3.35
2022-08-03T02:12:20.790Z,3.08
2022-08-03T02:14:49.866Z,3.33
2022-08-03T02:17:17.403Z,3.13
2022-08-03T02:19:45.524Z,3.47
2022-08-03T02:22:14.512Z,3.10
2022-08-03T02:24:42.090Z,2.83
2022-08-03T02:27:23.581Z,2.50
2022-08-03T02:29:59.026Z,3.00
2022-08-03T02:32:31.427Z,2.88
2022-08-03T02:35:00.743Z,2.63
2022-08-03T02:37:32.450Z,3.10
2022-08-03T02:40:03.179Z,2.65
2022-08-03T02:42:32.711Z,2.60
2022-08-03T02:45:03.074Z,2.78
2022-08-03T02:47:53.358Z,2.60
2022-08-03T02:50:21.880Z,2.30
2022-08-03T02:52:51.148Z,1.75
2022-08-03T02:55:21.732Z,2.13
2022-08-03T02:57:50.312Z,1.70
2022-08-03T03:00:19.487Z,1.50
2022-08-03T03:02:57.684Z,3.58
2022-08-03T03:05:53.088Z,1.40
2022-08-03T03:08:20.942Z,2.63
2022-08-03T03:10:56.039Z,1.50
2022-08-03T03:13:23.601Z,1.80
2022-08-03T03:15:52.813Z,1.20
2022-08-03T03:18:22.914Z,1.15
2022-08-03T03:20:54.601Z,1.63
2022-08-03T03:23:23.469Z,1.50
2022-08-03T03:25:51.504Z,1.50
2022-08-03T03:28:18.772Z,1.42
2022-08-03T03:30:52.841Z,1.90
2022-08-03T03:33:21.719Z,2.22
2022-08-03T03:35:49.078Z,2.70
2022-08-03T03:38:16.142Z,1.95
2022-08-03T03:40:43.455Z,2.30
2022-08-03T03:43:11.820Z,2.17
2022-08-03T03:45:43.034Z,1.90
2022-08-03T03:48:10.790Z,2.17
2022-08-03T03:50:41.042Z,2.00
2022-08-03T03:53:13.059Z,2.35
2022-08-03T03:55:57.918Z,2.20
2022-08-03T03:58:29.195Z,2.00
2022-08-03T04:00:56.583Z,2.20
2022-08-03T04:03:24.536Z,2.20
2022-08-03T04:06:10.297Z,1.80
2022-08-03T04:08:55.922Z,2.15
2022-08-03T04:11:43.515Z,2.05
2022-08-03T04:14:14.489Z,2.25
2022-08-03T04:16:49.112Z,2.17
2022-08-03T04:19:44.239Z,2.55
2022-08-03T04:22:17.035Z,2.63
2022-08-03T04:24:54.059Z,2.17
2022-08-03T04:27:27.522Z,2.03
2022-08-03T04:29:56.919Z,2.17
2022-08-03T04:32:28.720Z,3.25
2022-08-03T04:34:55.935Z,3.58
2022-08-03T04:37:50.193Z,2.45
2022-08-03T04:40:30.801Z,2.60
2022-08-03T04:42:59.756Z,2.50
2022-08-03T04:45:28.522Z,2.55
2022-08-03T04:47:56.231Z,2.10
2022-08-03T04:50:23.659Z,2.28
2022-08-03T04:52:50.575Z,2.60
2022-08-03T04:55:31.192Z,2.25
2022-08-03T04:57:59.336Z,2.58
2022-08-03T05:00:27.051Z,2.13
2022-08-03T05:02:54.436Z,2.50
2022-08-03T05:05:22.415Z,2.63
2022-08-03T05:07:50.490Z,2.13
2022-08-03T05:10:18.347Z,2.13
2022-08-03T05:12:46.483Z,2.28
2022-08-03T05:15:14.124Z,2.25
2022-08-03T05:17:41.470Z,2.42
2022-08-03T05:20:09.238Z,2.60
2022-08-03T05:22:36.191Z,2.10
2022-08-03T05:25:03.486Z,2.13
2022-08-03T05:27:30.455Z,2.70
2022-08-03T05:30:27.288Z,2.17
2022-08-03T05:32:44.391Z,1.88
2022-08-03T05:36:01.981Z,2.28
2022-08-03T05:37:58.232Z,2.10
2022-08-03T05:40:25.351Z,2.22
2022-08-03T05:42:54.046Z,2.20
2022-08-03T05:45:23.291Z,2.30
2022-08-03T05:47:53.752Z,2.58
2022-08-03T05:50:20.989Z,2.25
2022-08-03T05:52:48.199Z,2.30
2022-08-03T05:55:15.445Z,3.25
2022-08-03T05:57:42.624Z,2.42
2022-08-03T06:00:12.499Z,2.10
2022-08-03T06:02:40.718Z,2.63
2022-08-03T06:05:08.729Z,2.63
2022-08-03T06:07:35.852Z,2.20
2022-08-03T06:10:36.980Z,3.10
2022-08-03T06:12:51.412Z,3.00
2022-08-03T06:15:20.575Z,2.35
2022-08-03T06:17:51.741Z,3.03
2022-08-03T06:20:20.384Z,2.83
2022-08-03T06:22:51.350Z,2.37
2022-08-03T06:25:27.862Z,2.90
2022-08-03T06:27:54.805Z,2.40
2022-08-03T06:33:08.204Z,2.80
2022-08-03T06:35:35.383Z,2.70
2022-08-03T06:38:03.877Z,2.63
2022-08-03T06:40:34.616Z,2.95
2022-08-03T06:43:02.743Z,3.25
2022-08-03T06:45:32.073Z,2.10
2022-08-03T06:48:13.105Z,2.90
2022-08-03T06:50:42.560Z,3.03
2022-08-03T06:55:40.757Z,3.10
2022-08-03T06:58:09.473Z,2.85
2022-08-03T07:00:36.437Z,2.35
2022-08-03T07:03:03.728Z,2.67
2022-08-03T07:05:33.484Z,2.75
2022-08-03T07:08:01.992Z,2.80
2022-08-03T07:10:29.097Z,2.97
2022-08-03T07:12:56.900Z,3.95
2022-08-03T07:15:53.908Z,2.83
2022-08-03T07:18:11.622Z,2.90
2022-08-03T07:20:38.547Z,2.90
2022-08-03T07:23:05.462Z,2.75
2022-08-03T07:25:32.525Z,3.13
2022-08-03T07:27:59.754Z,2.53
2022-08-03T07:30:26.625Z,2.10
2022-08-03T07:32:53.531Z,2.42
2022-08-03T07:35:24.413Z,2.17
2022-08-03T07:37:54.469Z,2.35
2022-08-03T07:40:22.272Z,2.00
2022-08-03T07:42:53.426Z,1.92
2022-08-03T07:45:23.407Z,1.63
2022-08-03T07:47:53.638Z,2.08
2022-08-03T07:50:22.311Z,2.20
2022-08-03T07:52:50.496Z,2.00
2022-08-03T07:55:19.961Z,1.80
2022-08-03T07:57:47.240Z,1.83
2022-08-03T08:00:19.378Z,1.80
2022-08-03T08:02:46.572Z,1.80
2022-08-03T08:05:13.674Z,2.00
2022-08-03T08:07:40.859Z,1.63
2022-08-03T08:10:10.201Z,2.75
2022-08-03T08:15:05.984Z,1.30
2022-08-03T08:17:42.063Z,2.28
2022-08-03T08:20:10.580Z,1.80
2022-08-03T08:22:37.536Z,2.23
2022-08-03T08:25:07.727Z,3.80
2022-08-03T08:28:22.517Z,3.30
2022-08-03T08:30:28.224Z,2.05
2022-08-03T08:32:56.224Z,7.38
2022-08-03T08:35:23.534Z,2.03
2022-08-03T08:37:50.734Z,1.50
2022-08-03T08:40:21.247Z,1.55
2022-08-03T08:42:58.045Z,2.10
2022-08-03T08:45:26.666Z,1.30
2022-08-03T08:48:01.049Z,1.83
2022-08-03T08:50:30.460Z,3.25
2022-08-03T08:53:04.353Z,1.40
2022-08-03T08:55:59.097Z,1.80
2022-08-03T08:58:21.693Z,2.50
2022-08-03T09:00:49.380Z,1.60
2022-08-03T09:03:29.658Z,2.10
2022-08-03T09:06:02.361Z,1.90
2022-08-03T09:08:31.620Z,1.98
2022-08-03T09:10:58.860Z,1.30
2022-08-03T09:13:25.838Z,2.00
2022-08-03T09:16:13.695Z,1.13
2022-08-03T09:18:42.259Z,1.35
2022-08-03T09:21:36.283Z,1.30
2022-08-03T09:24:07.022Z,1.70
2022-08-03T09:26:37.383Z,1.38
2022-08-03T09:29:15.360Z,1.60
2022-08-03T09:31:46.992Z,1.50
2022-08-03T09:34:19.593Z,1.65
2022-08-03T09:36:51.106Z,1.58
2022-08-03T09:39:40.626Z,1.63
2022-08-03T09:42:17.276Z,1.80
2022-08-03T09:44:47.790Z,1.40
2022-08-03T09:49:43.335Z,1.63
2022-08-03T09:52:39.502Z,1.55
2022-08-03T09:55:23.569Z,1.48
2022-08-03T09:58:10.432Z,1.98
2022-08-03T10:00:56.219Z,1.45
2022-08-03T10:03:24.227Z,1.58
2022-08-03T10:05:54.848Z,2.03
2022-08-03T10:08:25.149Z,1.40
2022-08-03T10:10:57.993Z,1.65
2022-08-03T10:13:25.935Z,1.83
2022-08-03T10:16:21.969Z,1.60
2022-08-03T10:18:39.714Z,1.65
2022-08-03T10:21:12.062Z,1.60
2022-08-03T10:23:41.029Z,1.30
2022-08-03T10:26:10.424Z,1.40
2022-08-03T10:28:50.480Z,1.52
2022-08-03T10:31:20.650Z,1.10
2022-08-03T10:33:53.055Z,1.40
2022-08-03T10:36:27.452Z,1.50
2022-08-03T10:38:57.144Z,1.60
2022-08-03T10:41:29.762Z,1.40
2022-08-03T10:43:58.700Z,1.25
2022-08-03T10:46:27.514Z,1.45
2022-08-03T10:48:56.678Z,1.33
2022-08-03T10:53:54.702Z,1.70
2022-08-03T10:56:53.458Z,1.80
2022-08-03T10:59:47.229Z,1.40
2022-08-03T11:02:15.199Z,1.08
2022-08-03T11:04:42.901Z,1.10
2022-08-03T11:07:21.733Z,1.40
2022-08-03T11:09:54.068Z,1.20
2022-08-03T11:12:31.072Z,1.17
2022-08-03T11:15:07.479Z,1.42
2022-08-03T11:17:46.881Z,1.25
2022-08-03T11:20:48.862Z,1.20
2022-08-03T11:23:17.275Z,1.17
2022-08-03T11:26:19.551Z,1.17
2022-08-03T11:28:47.917Z,1.25
2022-08-03T11:31:51.667Z,0.93
2022-08-03T11:34:18.978Z,1.20
2022-08-03T11:37:22.082Z,1.35
2022-08-03T11:39:51.749Z,1.38
2022-08-03T11:42:25.582Z,1.60
2022-08-03T11:44:58.109Z,1.38
2022-08-03T11:47:27.380Z,1.75
2022-08-03T11:50:00.364Z,1.23
2022-08-03T11:52:29.255Z,1.38
2022-08-03T11:54:57.150Z,1.10
2022-08-03T11:59:01.491Z,1.05
2022-08-03T12:00:26.545Z,1.50
2022-08-03T12:03:04.229Z,1.08
2022-08-03T12:05:51.798Z,1.10
2022-08-03T12:08:28.591Z,1.30
2022-08-03T12:10:57.487Z,1.10
2022-08-03T12:14:10.710Z,1.30
2022-08-03T12:16:24.710Z,1.17
2022-08-03T12:19:06.917Z,1.20
2022-08-03T12:21:33.976Z,1.13
2022-08-03T12:24:03.715Z,1.20
2022-08-03T12:26:43.642Z,1.00
2022-08-03T12:29:18.602Z,1.73
2022-08-03T12:31:45.807Z,1.45
2022-08-03T12:34:13.674Z,1.00
2022-08-03T12:36:51.735Z,1.40
2022-08-03T12:39:23.853Z,1.15
2022-08-03T12:41:55.019Z,1.30
2022-08-03T12:44:33.123Z,1.30
2022-08-03T12:47:01.607Z,0.88
2022-08-03T12:49:30.411Z,1.53
2022-08-03T12:52:05.286Z,1.05
2022-08-03T12:54:34.640Z,1.13
2022-08-03T12:57:07.446Z,0.85
2022-08-03T12:59:49.864Z,2.65
2022-08-03T13:02:26.351Z,1.40
2022-08-03T13:04:54.716Z,1.80
2022-08-03T13:07:22.893Z,1.73
2022-08-03T13:09:54.960Z,1.20
2022-08-03T13:12:29.949Z,0.85
2022-08-03T13:14:59.719Z,1.27
2022-08-03T13:17:28.130Z,1.10
2022-08-03T13:19:55.944Z,1.27
2022-08-03T13:22:25.087Z,1.05
2022-08-03T13:24:55.993Z,1.13
2022-08-03T13:28:04.552Z,1.20
2022-08-03T13:30:11.049Z,0.93
2022-08-03T13:32:38.437Z,1.00
2022-08-03T13:35:06.069Z,1.23
2022-08-03T13:37:33.172Z,0.95
2022-08-03T13:40:02.915Z,1.10
2022-08-03T13:42:33.443Z,1.20
2022-08-03T13:45:01.452Z,1.50
2022-08-03T13:47:28.629Z,0.98
2022-08-03T13:50:00.932Z,1.30
2022-08-03T13:52:31.099Z,1.05
2022-08-03T13:54:58.791Z,1.60
2022-08-03T13:58:03.344Z,1.60
2022-08-03T14:00:13.564Z,1.35
2022-08-03T14:02:58.458Z,1.38
2022-08-03T14:05:32.277Z,1.10
2022-08-03T14:08:04.745Z,1.13
2022-08-03T14:10:35.817Z,1.20
2022-08-03T14:13:03.506Z,0.88
2022-08-03T14:15:30.839Z,1.15
2022-08-03T14:17:58.560Z,1.48
2022-08-03T14:20:38.762Z,1.40
2022-08-03T14:23:16.206Z,1.00
2022-08-03T14:25:51.617Z,1.70
2022-08-03T14:28:22.639Z,1.45
2022-08-03T14:30:50.482Z,1.40
2022-08-03T14:33:17.395Z,1.15
2022-08-03T14:35:44.354Z,1.08
2022-08-03T14:38:11.258Z,1.20
2022-08-03T14:40:38.165Z,1.77
2022-08-03T14:43:05.996Z,1.42
2022-08-03T14:45:34.428Z,1.30
2022-08-03T14:50:33.566Z,1.00
2022-08-03T14:50:51.904Z,1.75
2022-08-03T14:53:20.809Z,1.58
2022-08-03T14:55:51.488Z,0.87
2022-08-03T14:58:22.238Z,1.33
2022-08-03T15:00:51.090Z,1.40
2022-08-03T15:03:23.116Z,1.00
2022-08-03T15:05:55.371Z,1.05
2022-08-03T15:08:26.766Z,1.10
2022-08-03T15:10:55.224Z,1.25
2022-08-03T15:13:22.279Z,1.45
2022-08-03T15:15:52.291Z,1.17
2022-08-03T15:18:20.311Z,1.30
2022-08-03T15:20:49.133Z,1.20
2022-08-03T15:23:17.248Z,1.13
2022-08-03T15:26:31.583Z,1.67
2022-08-03T15:28:32.503Z,1.65
2022-08-03T15:30:59.507Z,2.00
2022-08-03T15:33:26.513Z,2.95
2022-08-03T15:35:53.537Z,1.42
2022-08-03T15:38:26.048Z,1.45
2022-08-03T15:40:56.641Z,1.27
2022-08-03T15:43:24.063Z,1.27
2022-08-03T15:46:12.660Z,1.80
2022-08-03T15:48:38.885Z,1.95
2022-08-03T15:51:06.346Z,1.27
2022-08-03T15:53:33.774Z,1.33
2022-08-03T15:56:03.335Z,1.10
2022-08-03T15:59:09.886Z,1.08
2022-08-03T16:01:21.478Z,1.60
2022-08-03T16:03:48.534Z,1.30
2022-08-03T16:06:16.004Z,1.08
2022-08-03T16:08:43.081Z,1.50
2022-08-03T16:11:10.881Z,1.70
2022-08-03T16:14:14.559Z,1.25
2022-08-03T16:16:24.671Z,1.20
2022-08-03T16:18:51.569Z,1.17
2022-08-03T16:21:20.022Z,1.00
2022-08-03T16:23:48.945Z,1.23
2022-08-03T16:26:15.993Z,1.52
2022-08-03T16:28:42.951Z,1.42
2022-08-03T16:31:09.945Z,1.02
2022-08-03T16:33:36.964Z,1.27
2022-08-03T16:36:04.094Z,1.20
2022-08-03T16:38:31.361Z,1.13
2022-08-03T16:40:58.621Z,0.98
2022-08-03T16:43:25.529Z,0.95
2022-08-03T16:45:52.590Z,1.40
2022-08-03T16:48:19.891Z,0.90
2022-08-03T16:50:47.468Z,1.95
2022-08-03T16:53:17.041Z,1.50
2022-08-03T16:55:53.685Z,2.30
2022-08-03T16:58:41.737Z,1.92
2022-08-03T17:01:24.253Z,1.40
2022-08-03T17:04:03.014Z,1.33
2022-08-03T17:06:36.896Z,1.60
2022-08-03T17:09:10.300Z,1.10
2022-08-03T17:11:47.243Z,1.38
2022-08-03T17:14:17.062Z,0.90
2022-08-03T17:19:21.798Z,1.30
2022-08-03T17:21:52.884Z,1.20
2022-08-03T17:24:42.230Z,1.10
2022-08-03T17:28:41.338Z,1.02
2022-08-03T17:30:13.301Z,2.92
2022-08-03T17:35:20.929Z,1.25
2022-08-03T17:37:58.263Z,1.33
2022-08-03T17:40:31.303Z,1.10
2022-08-03T17:43:00.799Z,1.20
2022-08-03T17:45:52.285Z,1.00
2022-08-03T17:48:18.648Z,0.90
2022-08-03T17:50:53.098Z,1.27
2022-08-03T17:53:29.047Z,1.15
2022-08-03T17:56:40.790Z,1.40
2022-08-03T17:59:17.309Z,0.93
2022-08-03T18:02:57.137Z,1.13
2022-08-03T18:06:10.367Z,1.27
2022-08-03T18:08:19.010Z,1.35
2022-08-03T18:10:56.639Z,0.85
2022-08-03T18:13:39.690Z,2.50
2022-08-03T18:16:13.087Z,1.52
2022-08-03T18:18:43.711Z,1.88
2022-08-03T18:21:17.152Z,2.00
2022-08-03T18:23:46.056Z,1.90
2022-08-03T18:26:17.515Z,1.55
2022-08-03T18:28:45.047Z,2.10
2022-08-03T18:31:59.540Z,1.85
2022-08-03T18:34:19.155Z,1.83
2022-08-03T18:36:52.533Z,1.63
2022-08-03T18:39:23.190Z,1.70
2022-08-03T18:41:50.177Z,1.42
2022-08-03T18:44:52.537Z,1.58
2022-08-03T18:47:16.179Z,1.40
2022-08-03T18:49:55.460Z,1.33
2022-08-03T18:52:31.710Z,2.50
2022-08-03T18:55:20.623Z,1.88
2022-08-03T18:58:15.950Z,1.83
2022-08-03T19:01:01.113Z,2.55
2022-08-03T19:03:41.550Z,1.90
2022-08-03T19:06:19.719Z,3.03
2022-08-03T19:09:04.337Z,1.92
2022-08-03T19:12:14.101Z,1.90
2022-08-03T19:14:39.282Z,2.17
2022-08-03T19:17:11.271Z,2.42
2022-08-03T19:19:44.230Z,3.07
2022-08-03T19:22:16.273Z,3.90
2022-08-03T19:24:46.419Z,2.60
2022-08-03T19:27:14.169Z,2.33
2022-08-03T19:29:58.086Z,2.40
2022-08-03T19:32:31.738Z,2.40
2022-08-03T19:35:01.104Z,2.80
2022-08-03T19:40:10.302Z,2.35
2022-08-03T19:42:42.952Z,3.33
2022-08-03T19:45:15.218Z,3.10
2022-08-03T19:47:52.594Z,3.30
2022-08-03T19:50:20.692Z,3.67
2022-08-03T19:52:49.748Z,3.08
2022-08-03T19:55:18.058Z,3.20
2022-08-03T19:57:49.254Z,3.30
2022-08-03T20:00:20.061Z,2.95
2022-08-03T20:02:54.113Z,3.20
2022-08-03T20:05:21.088Z,3.25
2022-08-03T20:07:50.605Z,3.20
2022-08-03T20:10:19.414Z,2.70
2022-08-03T20:12:49.206Z,2.80
2022-08-03T20:15:22.499Z,3.03
2022-08-03T20:17:59.390Z,2.75
2022-08-03T20:20:35.042Z,2.65
2022-08-03T20:23:07.165Z,2.95
2022-08-03T20:25:56.955Z,3.10
2022-08-03T20:28:35.210Z,3.47
2022-08-03T20:31:18.893Z,4.03
2022-08-03T20:33:49.143Z,5.32
2022-08-03T20:36:17.883Z,5.20
2022-08-03T20:38:47.692Z,4.47
2022-08-03T20:43:42.641Z,2.83
2022-08-03T20:46:29.527Z,2.80
2022-08-03T20:48:58.986Z,2.97
2022-08-03T20:51:49.793Z,3.85
2022-08-03T20:54:28.839Z,3.58
2022-08-03T20:56:58.335Z,3.00
2022-08-03T20:59:38.503Z,3.35
2022-08-03T21:02:19.701Z,3.75
2022-08-03T21:08:05.781Z,3.25
2022-08-03T21:10:15.525Z,5.20
2022-08-03T21:13:15.343Z,4.10
2022-08-03T21:16:06.396Z,4.13
2022-08-03T21:18:39.241Z,4.43
2022-08-03T21:21:08.226Z,4.75
2022-08-03T21:23:48.020Z,4.30
2022-08-03T21:26:19.097Z,3.30
2022-08-03T21:28:47.748Z,4.35
2022-08-03T21:31:24.479Z,4.43
2022-08-03T21:33:54.099Z,4.60
2022-08-03T21:36:21.455Z,4.30
2022-08-03T21:38:56.312Z,4.40
2022-08-03T21:41:25.443Z,4.47
2022-08-03T21:43:52.433Z,4.47
2022-08-03T21:46:20.063Z,4.25
2022-08-03T21:48:53.243Z,4.13
2022-08-03T21:51:24.357Z,3.40
2022-08-03T21:54:03.593Z,4.18
2022-08-03T21:56:41.024Z,3.90
2022-08-03T21:59:09.342Z,3.70
2022-08-03T22:01:37.125Z,4.25
2022-08-03T22:04:11.852Z,3.67
2022-08-03T22:06:42.421Z,3.70
2022-08-03T22:09:10.006Z,3.97
2022-08-03T22:11:37.686Z,3.40
2022-08-03T22:14:05.522Z,4.13
2022-08-03T22:16:33.064Z,3.90
2022-08-03T22:19:00.364Z,4.07
2022-08-03T22:21:35.763Z,4.07
2022-08-03T22:24:05.208Z,3.70
2022-08-03T22:26:35.455Z,2.90
2022-08-03T22:29:07.018Z,3.70
2022-08-03T22:31:58.394Z,3.78
2022-08-03T22:34:26.592Z,3.50
2022-08-03T22:36:56.601Z,2.95
2022-08-03T22:39:28.989Z,3.05
2022-08-03T22:41:59.526Z,3.25
2022-08-03T22:44:27.699Z,3.35
2022-08-03T22:46:55.556Z,4.00
2022-08-03T22:49:22.957Z,3.33
2022-08-03T22:51:52.538Z,4.10
2022-08-03T22:54:19.584Z,3.70
2022-08-03T22:56:47.217Z,2.85
2022-08-03T22:59:40.370Z,3.90
2022-08-03T23:02:19.872Z,3.95
2022-08-03T23:04:53.479Z,3.35
2022-08-03T23:07:27.432Z,3.80
2022-08-03T23:09:58.425Z,3.92
2022-08-03T23:12:26.889Z,3.65
2022-08-03T23:14:57.589Z,3.90
2022-08-03T23:17:26.430Z,4.28
2022-08-03T23:19:55.087Z,4.10
2022-08-03T23:22:29.750Z,3.75
2022-08-03T23:24:59.272Z,3.75
2022-08-03T23:27:27.696Z,4.90
2022-08-03T23:29:57.528Z,3.75
2022-08-03T23:35:16.326Z,4.22
2022-08-03T23:38:04.202Z,3.97
2022-08-03T23:40:32.439Z,3.80
2022-08-03T23:43:02.653Z,3.95
2022-08-03T23:45:34.554Z,3.72
2022-08-03T23:48:01.488Z,3.80
2022-08-03T23:50:35.209Z,3.80
2022-08-03T23:53:18.547Z,3.38
2022-08-03T23:55:53.224Z,3.45
2022-08-03T23:58:38.678Z,3.28
